createdAt,value
2024-01-06T00:02:20.264Z,100519.19
2024-01-06T00:04:46.889Z,100517.69
2024-01-06T00:07:14.760Z,100519.72
2024-01-06T00:09:41.459Z,100526.63
2024-01-06T00:12:08.158Z,100530.66
2024-01-06T00:14:34.810Z,100530.34
2024-01-06T00:17:01.477Z,100528.13
2024-01-06T00:19:28.250Z,100530.31
2024-01-06T00:21:54.870Z,100535.38
2024-01-06T00:24:21.511Z,100534.88
2024-01-06T00:26:48.128Z,100534.53
2024-01-06T00:29:14.715Z,100536.72
2024-01-06T00:31:41.469Z,100538.25
2024-01-06T00:34:08.172Z,100536.94
2024-01-06T00:36:34.770Z,100541.09
2024-01-06T00:39:01.341Z,100545.13
2024-01-06T00:41:27.943Z,100545.00
2024-01-06T00:43:54.553Z,100553.38
2024-01-06T00:46:21.147Z,100551.19
2024-01-06T00:48:47.834Z,100557.06
2024-01-06T00:51:14.543Z,100560.22
2024-01-06T00:53:41.102Z,100561.56
2024-01-06T00:56:07.757Z,100565.59
2024-01-06T00:58:34.345Z,100563.41
2024-01-06T01:01:01.055Z,100567.44
2024-01-06T01:03:27.901Z,100578.53
2024-01-06T01:05:54.771Z,100578.00
2024-01-06T01:08:21.389Z,100582.84
2024-01-06T01:10:47.951Z,100580.66
2024-01-06T01:13:14.493Z,100584.66
2024-01-06T01:15:41.131Z,100586.00
2024-01-06T01:18:09.185Z,100592.50
2024-01-06T01:20:35.910Z,100593.84
2024-01-06T01:23:02.461Z,100604.91
2024-01-06T01:25:29.103Z,100605.22
2024-01-06T01:27:55.705Z,100605.56
2024-01-06T01:30:22.372Z,100610.22
2024-01-06T01:32:49.101Z,100616.09
2024-01-06T01:35:16.103Z,100627.97
2024-01-06T01:37:42.770Z,100619.41
2024-01-06T01:40:09.838Z,100620.56
2024-01-06T01:42:36.477Z,100628.94
2024-01-06T01:45:03.131Z,100639.84
2024-01-06T01:47:29.874Z,100636.63
2024-01-06T01:49:57.650Z,100638.63
2024-01-06T01:52:24.609Z,100646.00
2024-01-06T01:54:53.802Z,100649.00
2024-01-06T01:57:24.595Z,100654.53
2024-01-06T01:59:51.242Z,100660.03
2024-01-06T02:02:18.300Z,100662.19
2024-01-06T02:04:46.721Z,100665.88
2024-01-06T02:07:13.308Z,100663.34
2024-01-06T02:09:39.938Z,100665.66
2024-01-06T02:12:06.820Z,100664.81
2024-01-06T02:14:33.782Z,100674.03
2024-01-06T02:17:00.362Z,100675.00
2024-01-06T02:19:26.986Z,100680.72
2024-01-06T02:21:54.698Z,100682.69
2024-01-06T02:24:22.049Z,100686.53
2024-01-06T02:26:48.725Z,100688.34
2024-01-06T02:29:15.284Z,100687.69
2024-01-06T02:31:42.058Z,100695.03
2024-01-06T02:34:08.840Z,100696.03
2024-01-06T02:36:35.540Z,100697.16
2024-01-06T02:39:02.408Z,100695.47
2024-01-06T02:41:28.950Z,100702.00
2024-01-06T02:43:56.676Z,100705.66
2024-01-06T02:46:23.277Z,100706.66
2024-01-06T02:48:49.961Z,100705.13
2024-01-06T02:51:16.745Z,100714.16
2024-01-06T02:53:43.445Z,100711.63
2024-01-06T02:56:13.534Z,100718.13
2024-01-06T02:58:40.540Z,100722.66
2024-01-06T03:01:07.296Z,100724.66
2024-01-06T03:03:34.283Z,100729.16
2024-01-06T03:06:01.133Z,100733.84
2024-01-06T03:08:28.026Z,100734.97
2024-01-06T03:10:54.623Z,100736.81
2024-01-06T03:13:21.386Z,100732.63
2024-01-06T03:15:48.324Z,100745.16
2024-01-06T03:18:15.200Z,100746.31
2024-01-06T03:20:41.931Z,100753.38
2024-01-06T03:23:08.566Z,100759.09
2024-01-06T03:25:35.120Z,100757.66
2024-01-06T03:28:01.970Z,100754.53
2024-01-06T03:30:28.636Z,100755.06
2024-01-06T03:32:55.307Z,100766.31
2024-01-06T03:35:21.956Z,100761.50
2024-01-06T03:37:48.813Z,100762.22
2024-01-06T03:40:15.428Z,100762.03
2024-01-06T03:42:42.032Z,100770.78
2024-01-06T03:45:09.023Z,100772.47
2024-01-06T03:47:35.662Z,100782.34
2024-01-06T03:50:02.229Z,100784.88
2024-01-06T03:52:28.855Z,100775.16
2024-01-06T03:54:55.469Z,100794.63
2024-01-06T03:57:22.200Z,100792.91
2024-01-06T03:59:48.832Z,100791.09
2024-01-06T04:02:15.380Z,100792.22
2024-01-06T04:04:41.977Z,100799.56
2024-01-06T04:07:08.549Z,100801.41
2024-01-06T04:09:35.194Z,100800.28
2024-01-06T04:12:02.288Z,100812.53
2024-01-06T04:14:29.240Z,100810.06
2024-01-06T04:16:57.654Z,100809.59
2024-01-06T04:19:25.068Z,100817.88
2024-01-06T04:21:52.067Z,100815.56
2024-01-06T04:24:18.976Z,100820.66
2024-01-06T04:26:47.057Z,100821.66
2024-01-06T04:29:13.805Z,100821.94
2024-01-06T04:31:41.827Z,100822.41
2024-01-06T04:34:08.687Z,100826.22
2024-01-06T04:36:35.405Z,100828.06
2024-01-06T04:39:02.187Z,100835.44
2024-01-06T04:41:28.849Z,100833.06
2024-01-06T04:43:55.433Z,100836.22
2024-01-06T04:46:22.013Z,100831.31
2024-01-06T04:48:48.678Z,100840.78
2024-01-06T04:51:16.073Z,100842.06
2024-01-06T04:53:42.653Z,100840.84
2024-01-06T04:56:09.194Z,100847.63
2024-01-06T04:58:35.971Z,100848.91
2024-01-06T05:01:03.476Z,100846.84
2024-01-06T05:03:30.360Z,100847.16
2024-01-06T05:05:57.239Z,100854.63
2024-01-06T05:08:24.013Z,100848.88
2024-01-06T05:10:50.720Z,100854.53
2024-01-06T05:13:18.530Z,100862.19
2024-01-06T05:15:45.179Z,100865.31
2024-01-06T05:18:11.966Z,100865.59
2024-01-06T05:20:38.696Z,100866.06
2024-01-06T05:23:05.214Z,100869.03
2024-01-06T05:25:31.786Z,100867.78
2024-01-06T05:27:58.506Z,100869.31
2024-01-06T05:30:25.482Z,100874.09
2024-01-06T05:32:52.202Z,100875.03
2024-01-06T05:35:18.856Z,100879.50
2024-01-06T05:37:45.425Z,100888.47
2024-01-06T05:40:12.795Z,100890.97
2024-01-06T05:42:39.578Z,100891.91
2024-01-06T05:45:06.717Z,100893.81
2024-01-06T05:47:33.760Z,100892.44
2024-01-06T05:50:00.500Z,100906.22
2024-01-06T05:52:27.081Z,100905.38
2024-01-06T05:54:53.850Z,100911.88
2024-01-06T05:57:20.575Z,100910.50
2024-01-06T05:59:47.301Z,100920.22
2024-01-06T06:02:14.773Z,100919.06
2024-01-06T06:04:41.479Z,100928.97
2024-01-06T06:07:08.207Z,100931.66
2024-01-06T06:09:35.945Z,100924.91
2024-01-06T06:12:02.726Z,100928.13
2024-01-06T06:14:30.470Z,100934.22
2024-01-06T06:16:57.998Z,100932.00
2024-01-06T06:19:24.859Z,100929.09
2024-01-06T06:21:51.582Z,100944.63
2024-01-06T06:24:18.282Z,100946.19
2024-01-06T06:26:44.954Z,100960.03
2024-01-06T06:29:11.582Z,100952.56
2024-01-06T06:31:38.287Z,100963.72
2024-01-06T06:34:08.697Z,100969.50
2024-01-06T06:36:36.192Z,100968.81
2024-01-06T06:39:05.193Z,100970.75
2024-01-06T06:41:31.987Z,100977.22
2024-01-06T06:43:58.852Z,100982.22
2024-01-06T06:46:25.658Z,100988.94
2024-01-06T06:48:52.510Z,100993.47
2024-01-06T06:51:19.463Z,100989.34
2024-01-06T06:53:48.274Z,100999.34
2024-01-06T06:56:18.207Z,100997.97
2024-01-06T06:58:44.940Z,101006.28
2024-01-06T07:01:11.583Z,101019.69
2024-01-06T07:03:38.689Z,101008.13
2024-01-06T07:06:05.482Z,101016.28
2024-01-06T07:08:32.066Z,101015.75
2024-01-06T07:10:58.631Z,101023.38
2024-01-06T07:13:25.222Z,101027.50
2024-01-06T07:15:52.488Z,101030.75
2024-01-06T07:18:24.320Z,101040.06
2024-01-06T07:20:50.989Z,101049.41
2024-01-06T07:23:17.709Z,101054.34
2024-01-06T07:25:44.330Z,101061.84
2024-01-06T07:28:10.906Z,101064.22
2024-01-06T07:30:37.594Z,101062.69
2024-01-06T07:33:04.410Z,101067.34
2024-01-06T07:35:30.985Z,101070.28
2024-01-06T07:37:57.551Z,101075.97
2024-01-06T07:40:26.587Z,101085.97
2024-01-06T07:42:53.239Z,101083.72
2024-01-06T07:45:19.900Z,101089.34
2024-01-06T07:47:46.570Z,101085.25
2024-01-06T07:50:13.180Z,101099.63
2024-01-06T07:52:39.734Z,101095.56
2024-01-06T07:55:06.431Z,101104.56
2024-01-06T07:57:33.272Z,101106.53
2024-01-06T08:00:02.421Z,101107.53
2024-01-06T08:02:31.013Z,101110.19
2024-01-06T08:04:57.986Z,101114.44
2024-01-06T08:07:24.865Z,101114.56
2024-01-06T08:09:51.499Z,101123.88
2024-01-06T08:12:18.144Z,101126.94
2024-01-06T08:14:44.773Z,101130.03
2024-01-06T08:17:11.347Z,101142.13
2024-01-06T08:19:38.125Z,101139.16
2024-01-06T08:22:04.784Z,101137.97
2024-01-06T08:24:31.333Z,101141.31
2024-01-06T08:26:58.523Z,101143.78
2024-01-06T08:29:25.067Z,101148.13
2024-01-06T08:31:53.433Z,101145.53
2024-01-06T08:34:20.349Z,101154.38
2024-01-06T08:36:47.281Z,101152.78
2024-01-06T08:39:14.178Z,101156.41
2024-01-06T08:41:40.782Z,101145.06
2024-01-06T08:44:07.328Z,101158.59
2024-01-06T08:46:33.921Z,101160.69
2024-01-06T08:49:01.698Z,101158.50
2024-01-06T08:51:28.510Z,101160.75
2024-01-06T08:53:55.108Z,101170.34
2024-01-06T08:56:21.820Z,101174.56
2024-01-06T08:58:48.368Z,101174.41
2024-01-06T09:01:15.080Z,101172.56
2024-01-06T09:03:41.896Z,101177.25
2024-01-06T09:06:08.574Z,101188.13
2024-01-06T09:08:35.139Z,101185.91
2024-01-06T09:11:01.769Z,101190.91
2024-01-06T09:13:28.326Z,101195.06
2024-01-06T09:15:55.304Z,101205.56
2024-01-06T09:18:22.232Z,101213.53
2024-01-06T09:20:49.108Z,101223.16
2024-01-06T09:23:17.069Z,101215.72
2024-01-06T09:25:43.710Z,101212.91
2024-01-06T09:28:11.989Z,101220.69
2024-01-06T09:30:38.876Z,101230.03
2024-01-06T09:33:05.699Z,101232.00
2024-01-06T09:35:33.287Z,101240.38
2024-01-06T09:37:59.866Z,101236.28
2024-01-06T09:40:26.448Z,101239.94
2024-01-06T09:42:54.733Z,101249.28
2024-01-06T09:45:22.224Z,101250.16
2024-01-06T09:47:52.934Z,101258.94
2024-01-06T09:50:20.636Z,101263.47
2024-01-06T09:52:56.583Z,101272.06
2024-01-06T09:55:27.272Z,101261.75
2024-01-06T09:57:55.066Z,101268.69
2024-01-06T10:00:22.758Z,101280.81
2024-01-06T10:02:50.179Z,101278.13
2024-01-06T10:05:20.179Z,101280.09
2024-01-06T10:07:47.122Z,101281.81
2024-01-06T10:10:14.425Z,101292.09
2024-01-06T10:12:42.325Z,101293.50
2024-01-06T10:15:11.124Z,101292.06
2024-01-06T10:17:42.088Z,101289.78
2024-01-06T10:20:13.202Z,101295.41
2024-01-06T10:22:42.491Z,101303.88
2024-01-06T10:25:10.238Z,101294.44
2024-01-06T10:27:38.384Z,101299.34
2024-01-06T10:30:08.726Z,101301.59
2024-01-06T10:32:37.389Z,101304.00
2024-01-06T10:35:08.296Z,101311.75
2024-01-06T10:37:35.097Z,101314.28
2024-01-06T10:40:08.711Z,101318.81
2024-01-06T10:42:35.856Z,101315.59
2024-01-06T10:45:03.206Z,101326.31
2024-01-06T10:47:33.186Z,101328.63
2024-01-06T10:50:02.146Z,101333.72
2024-01-06T10:52:29.660Z,101331.59
2024-01-06T10:54:57.063Z,101330.59
2024-01-06T10:57:24.656Z,101327.53
2024-01-06T10:59:52.718Z,101331.66
2024-01-06T11:02:20.144Z,101331.38
2024-01-06T11:04:48.254Z,101322.91
2024-01-06T11:07:17.299Z,101324.19
2024-01-06T11:10:01.489Z,101336.63
2024-01-06T11:12:28.596Z,101336.91
2024-01-06T11:14:55.579Z,101340.88
2024-01-06T11:17:55.065Z,101340.88
2024-01-06T11:20:23.234Z,101342.97
2024-01-06T11:22:50.942Z,101344.25
2024-01-06T11:25:20.994Z,101343.66
2024-01-06T11:27:49.590Z,101350.31
2024-01-06T11:30:24.583Z,101345.50
2024-01-06T11:32:56.638Z,101358.50
2024-01-06T11:35:25.159Z,101353.53
2024-01-06T11:37:56.071Z,101351.53
2024-01-06T11:40:22.712Z,101360.13
2024-01-06T11:42:58.094Z,101359.72
2024-01-06T11:45:26.466Z,101352.38
2024-01-06T11:48:03.610Z,101364.09
2024-01-06T11:50:33.371Z,101359.72
2024-01-06T11:53:02.998Z,101365.09
2024-01-06T11:55:30.073Z,101360.84
2024-01-06T11:57:58.816Z,101360.28
2024-01-06T12:00:25.610Z,101365.94
2024-01-06T12:02:57.610Z,101362.56
2024-01-06T12:05:25.989Z,101360.84
2024-01-06T12:07:56.253Z,101361.00
2024-01-06T12:10:23.813Z,101361.16
2024-01-06T12:13:18.988Z,101360.34
2024-01-06T12:15:45.684Z,101361.00
2024-01-06T12:18:12.455Z,101361.00
2024-01-06T12:20:39.273Z,101365.38
2024-01-06T12:23:07.590Z,101359.19
2024-01-06T12:25:39.936Z,101363.69
2024-01-06T12:28:07.851Z,101365.53
2024-01-06T12:30:36.459Z,101368.38
2024-01-06T12:33:03.597Z,101364.69
2024-01-06T12:35:30.294Z,101364.53
2024-01-06T12:37:57.136Z,101368.06
2024-01-06T12:40:23.931Z,101367.78
2024-01-06T12:42:50.583Z,101373.88
2024-01-06T12:45:17.722Z,101376.13
2024-01-06T12:47:44.776Z,101381.22
2024-01-06T12:50:11.573Z,101376.53
2024-01-06T12:52:40.100Z,101375.53
2024-01-06T12:55:08.617Z,101386.28
2024-01-06T12:57:35.639Z,101379.22
2024-01-06T13:00:02.707Z,101385.59
2024-01-06T13:02:29.593Z,101388.41
2024-01-06T13:04:56.366Z,101390.50
2024-01-06T13:07:23.344Z,101388.16
2024-01-06T13:09:50.390Z,101389.09
2024-01-06T13:12:19.628Z,101396.47
2024-01-06T13:14:48.412Z,101392.09
2024-01-06T13:17:18.027Z,101393.22
2024-01-06T13:19:45.117Z,101390.69
2024-01-06T13:22:11.791Z,101398.03
2024-01-06T13:24:39.116Z,101390.25
2024-01-06T13:27:05.886Z,101402.00
2024-01-06T13:29:32.799Z,101407.50
2024-01-06T13:32:00.703Z,101402.44
2024-01-06T13:34:27.994Z,101405.09
2024-01-06T13:36:57.140Z,101408.91
2024-01-06T13:39:24.621Z,101410.75
2024-01-06T13:41:51.358Z,101405.09
2024-01-06T13:44:17.998Z,101409.34
2024-01-06T13:46:48.773Z,101419.09
2024-01-06T13:49:15.828Z,101410.88
2024-01-06T13:51:42.753Z,101416.69
2024-01-06T13:54:10.545Z,101423.59
2024-01-06T13:56:38.042Z,101428.97
2024-01-06T13:59:04.803Z,101428.97
2024-01-06T14:01:31.810Z,101425.16
2024-01-06T14:03:59.352Z,101427.13
2024-01-06T14:06:26.927Z,101429.97
2024-01-06T14:08:53.753Z,101441.84
2024-01-06T14:11:20.334Z,101436.88
2024-01-06T14:13:50.501Z,101443.66
2024-01-06T14:16:17.081Z,101448.75
2024-01-06T14:18:43.781Z,101448.44
2024-01-06T14:21:11.687Z,101452.84
2024-01-06T14:23:38.407Z,101454.38
2024-01-06T14:26:05.000Z,101464.00
2024-01-06T14:28:31.608Z,101461.16
2024-01-06T14:30:58.279Z,101467.38
2024-01-06T14:33:25.018Z,101465.97
2024-01-06T14:35:51.917Z,101466.56
2024-01-06T14:38:18.513Z,101474.06
2024-01-06T14:40:45.165Z,101463.75
2024-01-06T14:43:11.800Z,101478.44
2024-01-06T14:45:39.314Z,101479.72
2024-01-06T14:48:06.635Z,101484.38
2024-01-06T14:50:33.255Z,101486.47
2024-01-06T14:52:59.826Z,101495.66
2024-01-06T14:55:26.421Z,101502.03
2024-01-06T14:57:53.014Z,101505.84
2024-01-06T15:00:19.813Z,101501.19
2024-01-06T15:02:49.846Z,101504.56
2024-01-06T15:05:17.055Z,101508.09
2024-01-06T15:07:43.826Z,101509.19
2024-01-06T15:10:11.747Z,101511.47
2024-01-06T15:12:38.508Z,101512.72
2024-01-06T15:15:06.999Z,101520.34
2024-01-06T15:17:33.737Z,101519.91
2024-01-06T15:20:00.415Z,101523.03
2024-01-06T15:22:29.190Z,101530.34
2024-01-06T15:24:57.938Z,101532.28
2024-01-06T15:27:25.529Z,101529.88
2024-01-06T15:29:52.290Z,101531.16
2024-01-06T15:32:19.425Z,101532.53
2024-01-06T15:34:46.036Z,101540.19
2024-01-06T15:37:12.591Z,101532.81
2024-01-06T15:39:39.226Z,101534.38
2024-01-06T15:42:05.892Z,101535.06
2024-01-06T15:44:34.575Z,101536.75
2024-01-06T15:47:01.285Z,101558.97
2024-01-06T15:49:28.559Z,101554.72
2024-01-06T15:51:55.397Z,101559.25
2024-01-06T15:54:24.153Z,101562.97
2024-01-06T15:56:51.076Z,101569.63
2024-01-06T15:59:17.664Z,101571.91
2024-01-06T16:01:44.405Z,101566.28
2024-01-06T16:04:11.299Z,101569.38
2024-01-06T16:06:38.001Z,101571.78
2024-01-06T16:09:06.878Z,101577.88
2024-01-06T16:11:33.687Z,101578.72
2024-01-06T16:14:00.264Z,101579.03
2024-01-06T16:16:30.091Z,101580.16
2024-01-06T16:18:56.864Z,101585.81
2024-01-06T16:21:24.817Z,101586.97
2024-01-06T16:23:52.316Z,101601.53
2024-01-06T16:26:20.069Z,101600.84
2024-01-06T16:28:48.005Z,101600.28
2024-01-06T16:31:14.649Z,101604.94
2024-01-06T16:33:41.505Z,101608.63
2024-01-06T16:36:11.358Z,101607.63
2024-01-06T16:38:38.015Z,101611.19
2024-01-06T16:41:05.143Z,101622.63
2024-01-06T16:43:35.537Z,101621.31
2024-01-06T16:46:02.157Z,101618.50
2024-01-06T16:48:28.936Z,101610.38
2024-01-06T16:50:55.593Z,101617.44
2024-01-06T16:53:22.158Z,101616.69
2024-01-06T16:55:48.731Z,101612.56
2024-01-06T16:58:15.398Z,101616.50
2024-01-06T17:00:42.126Z,101618.88
2024-01-06T17:03:09.249Z,101620.72
2024-01-06T17:05:36.108Z,101623.88
2024-01-06T17:08:04.682Z,101622.63
2024-01-06T17:10:31.283Z,101626.75
2024-01-06T17:12:57.939Z,101626.19
2024-01-06T17:15:27.311Z,101631.16
2024-01-06T17:17:54.027Z,101628.91
2024-01-06T17:20:20.704Z,101627.69
2024-01-06T17:22:47.673Z,101628.41
2024-01-06T17:25:16.201Z,101635.34
2024-01-06T17:27:46.379Z,101639.56
2024-01-06T17:30:15.703Z,101634.06
2024-01-06T17:32:42.641Z,101638.03
2024-01-06T17:35:09.633Z,101641.31
2024-01-06T17:37:36.240Z,101642.59
2024-01-06T17:40:03.826Z,101639.47
2024-01-06T17:42:31.339Z,101638.88
2024-01-06T17:44:59.216Z,101648.22
2024-01-06T17:47:26.004Z,101651.06
2024-01-06T17:49:52.749Z,101650.34
2024-01-06T17:52:19.759Z,101656.72
2024-01-06T17:54:46.450Z,101650.50
2024-01-06T17:57:18.869Z,101667.03
2024-01-06T17:59:46.289Z,101659.00
2024-01-06T18:02:13.963Z,101658.28
2024-01-06T18:04:40.815Z,101661.94
2024-01-06T18:07:09.137Z,101662.09
2024-01-06T18:09:36.014Z,101668.47
2024-01-06T18:12:02.646Z,101673.28
2024-01-06T18:14:36.061Z,101675.38
2024-01-06T18:17:04.734Z,101670.41
2024-01-06T18:19:31.452Z,101676.34
2024-01-06T18:21:58.443Z,101672.66
2024-01-06T18:24:25.088Z,101681.88
2024-01-06T18:26:52.175Z,101681.31
2024-01-06T18:29:19.987Z,101682.59
2024-01-06T18:31:46.841Z,101688.25
2024-01-06T18:34:13.653Z,101691.38
2024-01-06T18:36:40.486Z,101684.59
2024-01-06T18:39:08.622Z,101692.22
2024-01-06T18:41:35.239Z,101681.19
2024-01-06T18:44:03.369Z,101689.84
2024-01-06T18:46:30.118Z,101686.00
2024-01-06T18:48:56.923Z,101690.97
2024-01-06T18:51:23.655Z,101702.28
2024-01-06T18:53:50.210Z,101704.53
2024-01-06T18:56:16.800Z,101697.03
2024-01-06T18:58:43.477Z,101700.00
2024-01-06T19:01:10.137Z,101706.63
2024-01-06T19:03:36.892Z,101713.28
2024-01-06T19:06:03.646Z,101705.50
2024-01-06T19:08:30.237Z,101710.16
2024-01-06T19:10:56.789Z,101715.69
2024-01-06T19:13:23.339Z,101708.63
2024-01-06T19:15:50.071Z,101708.06
2024-01-06T19:18:16.777Z,101713.72
2024-01-06T19:20:45.455Z,101712.03
2024-01-06T19:23:12.258Z,101708.78
2024-01-06T19:25:38.825Z,101724.06
2024-01-06T19:28:06.545Z,101722.63
2024-01-06T19:30:33.349Z,101720.22
2024-01-06T19:33:00.138Z,101725.91
2024-01-06T19:35:28.361Z,101725.06
2024-01-06T19:37:54.924Z,101728.00
2024-01-06T19:40:22.600Z,101729.97
2024-01-06T19:42:52.198Z,101726.59
2024-01-06T19:45:19.106Z,101730.28
2024-01-06T19:47:45.950Z,101737.44
2024-01-06T19:50:13.296Z,101739.28
2024-01-06T19:52:39.949Z,101738.44
2024-01-06T19:55:10.929Z,101742.72
2024-01-06T19:57:37.777Z,101750.34
2024-01-06T20:00:05.802Z,101751.63
2024-01-06T20:02:32.428Z,101745.81
2024-01-06T20:04:59.194Z,101760.00
2024-01-06T20:07:29.835Z,101759.25
2024-01-06T20:09:58.048Z,101760.25
2024-01-06T20:12:25.940Z,101766.63
2024-01-06T20:14:57.802Z,101762.38
2024-01-06T20:17:25.440Z,101773.41
2024-01-06T20:19:52.656Z,101776.38
2024-01-06T20:22:19.719Z,101775.94
2024-01-06T20:24:46.439Z,101776.34
2024-01-06T20:27:13.348Z,101778.59
2024-01-06T20:29:39.939Z,101787.47
2024-01-06T20:32:07.024Z,101781.25
2024-01-06T20:34:34.114Z,101785.78
2024-01-06T20:37:01.169Z,101792.28
2024-01-06T20:39:27.904Z,101793.38
2024-01-06T20:41:54.598Z,101799.88
2024-01-06T20:44:21.616Z,101795.78
2024-01-06T20:46:49.784Z,101802.25
2024-01-06T20:49:16.529Z,101803.47
2024-01-06T20:51:43.148Z,101799.19
2024-01-06T20:54:09.707Z,101797.75
2024-01-06T20:56:37.418Z,101788.13
2024-01-06T20:59:04.034Z,101795.22
2024-01-06T21:01:30.846Z,101792.63
2024-01-06T21:03:57.594Z,101800.50
2024-01-06T21:06:24.218Z,101808.13
2024-01-06T21:08:50.961Z,101807.66
2024-01-06T21:11:17.544Z,101806.34
2024-01-06T21:13:44.137Z,101801.38
2024-01-06T21:16:10.832Z,101805.16
2024-01-06T21:18:40.345Z,101796.66
2024-01-06T21:21:06.959Z,101798.63
2024-01-06T21:23:40.530Z,101794.38
2024-01-06T21:26:14.485Z,101796.22
2024-01-06T21:28:41.064Z,101803.53
2024-01-06T21:31:07.829Z,101800.13
2024-01-06T21:33:34.585Z,101801.22
2024-01-06T21:36:01.236Z,101803.22
2024-01-06T21:38:27.769Z,101807.97
2024-01-06T21:40:54.350Z,101815.44
2024-01-06T21:43:21.110Z,101814.69
2024-01-06T21:45:47.890Z,101814.84
2024-01-06T21:48:14.659Z,101819.59
2024-01-06T21:50:41.906Z,101823.28
2024-01-06T21:53:08.608Z,101821.69
2024-01-06T21:55:35.158Z,101826.19
2024-01-06T21:58:01.910Z,101833.41
2024-01-06T22:00:28.745Z,101827.44
2024-01-06T22:02:55.413Z,101826.59
2024-01-06T22:05:22.164Z,101835.00
2024-01-06T22:07:48.821Z,101826.22
2024-01-06T22:10:16.251Z,101838.06
2024-01-06T22:12:42.889Z,101835.63
2024-01-06T22:15:10.221Z,101840.97
2024-01-06T22:17:36.868Z,101843.31
2024-01-06T22:20:05.102Z,101854.31
2024-01-06T22:22:31.765Z,101850.16
2024-01-06T22:24:58.476Z,101847.00
2024-01-06T22:27:25.286Z,101855.41
2024-01-06T22:29:52.005Z,101854.09
2024-01-06T22:32:18.574Z,101855.19
2024-01-06T22:34:45.551Z,101859.31
2024-01-06T22:37:12.531Z,101866.75
2024-01-06T22:39:42.426Z,101866.88
2024-01-06T22:42:09.152Z,101868.09
2024-01-06T22:44:36.431Z,101870.94
2024-01-06T22:47:03.269Z,101881.88
2024-01-06T22:49:30.087Z,101875.06
2024-01-06T22:51:56.876Z,101886.75
2024-01-06T22:54:23.696Z,101879.94
2024-01-06T22:56:50.343Z,101894.28
2024-01-06T22:59:17.211Z,101888.31
2024-01-06T23:01:44.000Z,101887.59
2024-01-06T23:04:10.672Z,101893.09
2024-01-06T23:06:37.585Z,101894.16
2024-01-06T23:09:05.656Z,101897.81
2024-01-06T23:11:32.541Z,101899.66
2024-01-06T23:13:59.539Z,101901.59
2024-01-06T23:16:26.835Z,101908.91
2024-01-06T23:18:54.227Z,101909.84
2024-01-06T23:21:20.935Z,101909.97
2024-01-06T23:23:47.905Z,101914.59
2024-01-06T23:26:14.546Z,101915.56
2024-01-06T23:28:41.134Z,101914.00
2024-01-06T23:31:09.326Z,101917.63
2024-01-06T23:33:36.229Z,101919.59
2024-01-06T23:36:04.030Z,101919.66
2024-01-06T23:38:30.664Z,101918.09
2024-01-06T23:40:57.298Z,101927.09
2024-01-06T23:43:23.905Z,101926.34
2024-01-06T23:45:50.620Z,101929.25
2024-01-06T23:48:17.253Z,101932.06
2024-01-06T23:50:43.838Z,101942.00
2024-01-06T23:53:12.153Z,101942.13
2024-01-06T23:55:38.737Z,101944.06
2024-01-06T23:58:05.479Z,101945.03
